sensor_id;sensor_type;location;lat;lon;timestamp;P1;durP1;ratioP1;P2;durP2;ratioP2
62353;SDS011;48391;49.184;2.418;2023-03-12T00:01:35;6.32;;;5.70;;
62353;SDS011;48391;49.184;2.418;2023-03-12T00:04:01;7.07;;;6.05;;
62353;SDS011;48391;49.184;2.418;2023-03-12T00:06:27;5.25;;;4.65;;
62353;SDS011;48391;49.184;2.418;2023-03-12T00:08:54;4.15;;;3.85;;
62353;SDS011;48391;49.184;2.418;2023-03-12T00:11:20;3.85;;;3.42;;
62353;SDS011;48391;49.184;2.418;2023-03-12T00:13:50;3.15;;;2.90;;
62353;SDS011;48391;49.184;2.418;2023-03-12T00:16:16;2.88;;;2.50;;
62353;SDS011;48391;49.184;2.418;2023-03-12T00:18:42;3.05;;;2.85;;
62353;SDS011;48391;49.184;2.418;2023-03-12T00:21:09;4.40;;;4.00;;
62353;SDS011;48391;49.184;2.418;2023-03-12T00:23:35;5.53;;;5.00;;
62353;SDS011;48391;49.184;2.418;2023-03-12T00:26:09;4.85;;;3.80;;
62353;SDS011;48391;49.184;2.418;2023-03-12T00:28:35;5.57;;;4.80;;
62353;SDS011;48391;49.184;2.418;2023-03-12T00:31:02;4.47;;;4.07;;
62353;SDS011;48391;49.184;2.418;2023-03-12T00:33:29;4.40;;;3.97;;
62353;SDS011;48391;49.184;2.418;2023-03-12T00:35:55;3.20;;;2.78;;
62353;SDS011;48391;49.184;2.418;2023-03-12T00:38:21;3.15;;;2.83;;
62353;SDS011;48391;49.184;2.418;2023-03-12T00:40:47;3.78;;;2.97;;
62353;SDS011;48391;49.184;2.418;2023-03-12T00:43:13;4.65;;;3.95;;
62353;SDS011;48391;49.184;2.418;2023-03-12T00:45:40;9.38;;;4.38;;
62353;SDS011;48391;49.184;2.418;2023-03-12T00:48:06;3.83;;;3.47;;
62353;SDS011;48391;49.184;2.418;2023-03-12T00:50:32;6.93;;;3.20;;
62353;SDS011;48391;49.184;2.418;2023-03-12T00:52:58;4.72;;;3.88;;
62353;SDS011;48391;49.184;2.418;2023-03-12T00:55:24;4.90;;;4.43;;
62353;SDS011;48391;49.184;2.418;2023-03-12T00:57:50;4.90;;;3.97;;
62353;SDS011;48391;49.184;2.418;2023-03-12T01:00:16;5.05;;;4.00;;
62353;SDS011;48391;49.184;2.418;2023-03-12T01:02:42;5.30;;;4.60;;
62353;SDS011;48391;49.184;2.418;2023-03-12T01:05:13;5.38;;;4.28;;
62353;SDS011;48391;49.184;2.418;2023-03-12T01:07:39;7.45;;;4.72;;
62353;SDS011;48391;49.184;2.418;2023-03-12T01:10:06;5.60;;;3.88;;
62353;SDS011;48391;49.184;2.418;2023-03-12T01:12:32;5.78;;;4.72;;
62353;SDS011;48391;49.184;2.418;2023-03-12T01:14:59;6.30;;;4.90;;
62353;SDS011;48391;49.184;2.418;2023-03-12T01:17:25;5.60;;;4.32;;
62353;SDS011;48391;49.184;2.418;2023-03-12T01:19:51;4.82;;;3.58;;
62353;SDS011;48391;49.184;2.418;2023-03-12T01:22:17;7.25;;;4.32;;
62353;SDS011;48391;49.184;2.418;2023-03-12T01:24:43;7.68;;;4.63;;
62353;SDS011;48391;49.184;2.418;2023-03-12T01:27:09;4.25;;;3.80;;
62353;SDS011;48391;49.184;2.418;2023-03-12T01:29:35;6.78;;;4.68;;
62353;SDS011;48391;49.184;2.418;2023-03-12T01:32:01;4.35;;;3.90;;
62353;SDS011;48391;49.184;2.418;2023-03-12T01:34:27;6.65;;;4.20;;
62353;SDS011;48391;49.184;2.418;2023-03-12T01:36:54;5.18;;;3.47;;
62353;SDS011;48391;49.184;2.418;2023-03-12T01:39:20;5.57;;;3.00;;
62353;SDS011;48391;49.184;2.418;2023-03-12T01:41:46;5.15;;;4.00;;
62353;SDS011;48391;49.184;2.418;2023-03-12T01:44:13;9.55;;;3.75;;
62353;SDS011;48391;49.184;2.418;2023-03-12T01:46:40;5.97;;;3.75;;
62353;SDS011;48391;49.184;2.418;2023-03-12T01:49:28;4.40;;;3.00;;
62353;SDS011;48391;49.184;2.418;2023-03-12T01:52:00;8.13;;;4.93;;
62353;SDS011;48391;49.184;2.418;2023-03-12T01:56:54;4.82;;;2.67;;
62353;SDS011;48391;49.184;2.418;2023-03-12T01:59:22;4.97;;;3.33;;
62353;SDS011;48391;49.184;2.418;2023-03-12T02:01:49;4.93;;;3.25;;
62353;SDS011;48391;49.184;2.418;2023-03-12T02:04:17;5.75;;;3.25;;
62353;SDS011;48391;49.184;2.418;2023-03-12T02:06:46;5.10;;;3.10;;
62353;SDS011;48391;49.184;2.418;2023-03-12T02:09:13;4.38;;;2.83;;
62353;SDS011;48391;49.184;2.418;2023-03-12T02:11:39;8.60;;;3.35;;
62353;SDS011;48391;49.184;2.418;2023-03-12T02:14:06;8.35;;;4.05;;
62353;SDS011;48391;49.184;2.418;2023-03-12T02:16:32;9.70;;;4.13;;
62353;SDS011;48391;49.184;2.418;2023-03-12T02:18:59;6.05;;;4.53;;
62353;SDS011;48391;49.184;2.418;2023-03-12T02:21:28;6.65;;;3.45;;
62353;SDS011;48391;49.184;2.418;2023-03-12T02:26:24;5.70;;;3.28;;
62353;SDS011;48391;49.184;2.418;2023-03-12T02:28:50;10.75;;;3.17;;
62353;SDS011;48391;49.184;2.418;2023-03-12T02:31:19;7.00;;;3.28;;
62353;SDS011;48391;49.184;2.418;2023-03-12T02:33:46;6.95;;;3.13;;
62353;SDS011;48391;49.184;2.418;2023-03-12T02:36:13;6.32;;;3.55;;
62353;SDS011;48391;49.184;2.418;2023-03-12T02:41:19;10.27;;;3.55;;
62353;SDS011;48391;49.184;2.418;2023-03-12T02:43:48;6.60;;;4.00;;
62353;SDS011;48391;49.184;2.418;2023-03-12T02:46:14;8.45;;;3.35;;
62353;SDS011;48391;49.184;2.418;2023-03-12T02:48:41;10.40;;;3.58;;
62353;SDS011;48391;49.184;2.418;2023-03-12T02:51:07;14.85;;;4.28;;
62353;SDS011;48391;49.184;2.418;2023-03-12T02:53:33;8.95;;;4.07;;
62353;SDS011;48391;49.184;2.418;2023-03-12T02:55:59;10.18;;;3.80;;
62353;SDS011;48391;49.184;2.418;2023-03-12T02:58:25;12.23;;;4.07;;
62353;SDS011;48391;49.184;2.418;2023-03-12T03:00:51;10.20;;;3.72;;
62353;SDS011;48391;49.184;2.418;2023-03-12T03:03:17;9.50;;;3.80;;
62353;SDS011;48391;49.184;2.418;2023-03-12T03:05:43;8.80;;;3.30;;
62353;SDS011;48391;49.184;2.418;2023-03-12T03:08:10;11.77;;;3.58;;
62353;SDS011;48391;49.184;2.418;2023-03-12T03:10:36;14.80;;;4.68;;
62353;SDS011;48391;49.184;2.418;2023-03-12T03:13:02;12.15;;;4.30;;
62353;SDS011;48391;49.184;2.418;2023-03-12T03:15:29;5.03;;;2.92;;
62353;SDS011;48391;49.184;2.418;2023-03-12T03:17:55;11.13;;;4.80;;
62353;SDS011;48391;49.184;2.418;2023-03-12T03:20:22;9.98;;;3.55;;
62353;SDS011;48391;49.184;2.418;2023-03-12T03:22:50;9.77;;;2.92;;
62353;SDS011;48391;49.184;2.418;2023-03-12T03:25:16;7.53;;;3.53;;
62353;SDS011;48391;49.184;2.418;2023-03-12T03:27:46;11.13;;;4.03;;
62353;SDS011;48391;49.184;2.418;2023-03-12T03:30:12;12.50;;;4.25;;
62353;SDS011;48391;49.184;2.418;2023-03-12T03:32:39;8.77;;;3.00;;
62353;SDS011;48391;49.184;2.418;2023-03-12T03:35:11;15.55;;;4.32;;
62353;SDS011;48391;49.184;2.418;2023-03-12T03:37:37;13.95;;;4.13;;
62353;SDS011;48391;49.184;2.418;2023-03-12T03:40:03;12.85;;;3.58;;
62353;SDS011;48391;49.184;2.418;2023-03-12T03:42:29;13.18;;;3.92;;
62353;SDS011;48391;49.184;2.418;2023-03-12T03:44:55;14.68;;;3.90;;
62353;SDS011;48391;49.184;2.418;2023-03-12T03:47:21;8.02;;;3.75;;
62353;SDS011;48391;49.184;2.418;2023-03-12T03:49:48;8.23;;;3.65;;
62353;SDS011;48391;49.184;2.418;2023-03-12T03:52:14;13.48;;;4.35;;
62353;SDS011;48391;49.184;2.418;2023-03-12T03:54:40;10.70;;;3.25;;
62353;SDS011;48391;49.184;2.418;2023-03-12T03:57:06;10.82;;;4.10;;
62353;SDS011;48391;49.184;2.418;2023-03-12T03:59:32;12.32;;;3.53;;
62353;SDS011;48391;49.184;2.418;2023-03-12T04:01:58;13.18;;;4.05;;
62353;SDS011;48391;49.184;2.418;2023-03-12T04:04:26;14.48;;;3.78;;
62353;SDS011;48391;49.184;2.418;2023-03-12T04:06:52;20.90;;;4.47;;
62353;SDS011;48391;49.184;2.418;2023-03-12T04:09:18;11.00;;;3.33;;
62353;SDS011;48391;49.184;2.418;2023-03-12T04:11:44;20.48;;;5.13;;
62353;SDS011;48391;49.184;2.418;2023-03-12T04:14:10;14.57;;;4.18;;
62353;SDS011;48391;49.184;2.418;2023-03-12T04:16:36;14.65;;;4.07;;
62353;SDS011;48391;49.184;2.418;2023-03-12T04:19:02;18.65;;;4.85;;
62353;SDS011;48391;49.184;2.418;2023-03-12T04:21:29;13.52;;;4.43;;
62353;SDS011;48391;49.184;2.418;2023-03-12T04:23:55;13.15;;;3.95;;
62353;SDS011;48391;49.184;2.418;2023-03-12T04:26:21;18.65;;;5.22;;
62353;SDS011;48391;49.184;2.418;2023-03-12T04:28:47;11.88;;;3.72;;
62353;SDS011;48391;49.184;2.418;2023-03-12T04:31:13;13.15;;;3.97;;
62353;SDS011;48391;49.184;2.418;2023-03-12T04:33:39;8.90;;;2.75;;
62353;SDS011;48391;49.184;2.418;2023-03-12T04:36:05;10.57;;;3.15;;
62353;SDS011;48391;49.184;2.418;2023-03-12T04:38:31;10.95;;;3.20;;
62353;SDS011;48391;49.184;2.418;2023-03-12T04:43:24;30.95;;;6.00;;
62353;SDS011;48391;49.184;2.418;2023-03-12T04:45:50;19.88;;;5.32;;
62353;SDS011;48391;49.184;2.418;2023-03-12T04:48:16;13.20;;;3.95;;
62353;SDS011;48391;49.184;2.418;2023-03-12T04:50:42;21.30;;;5.25;;
62353;SDS011;48391;49.184;2.418;2023-03-12T04:53:08;14.93;;;4.45;;
62353;SDS011;48391;49.184;2.418;2023-03-12T04:55:34;19.08;;;4.35;;
62353;SDS011;48391;49.184;2.418;2023-03-12T04:58:00;14.77;;;4.22;;
62353;SDS011;48391;49.184;2.418;2023-03-12T05:00:26;15.38;;;4.93;;
62353;SDS011;48391;49.184;2.418;2023-03-12T05:02:52;16.15;;;3.88;;
62353;SDS011;48391;49.184;2.418;2023-03-12T05:05:18;17.70;;;3.88;;
62353;SDS011;48391;49.184;2.418;2023-03-12T05:07:45;12.95;;;4.57;;
62353;SDS011;48391;49.184;2.418;2023-03-12T05:10:11;11.65;;;4.22;;
62353;SDS011;48391;49.184;2.418;2023-03-12T05:12:37;16.00;;;3.50;;
62353;SDS011;48391;49.184;2.418;2023-03-12T05:15:03;14.75;;;3.75;;
62353;SDS011;48391;49.184;2.418;2023-03-12T05:17:29;14.23;;;3.30;;
62353;SDS011;48391;49.184;2.418;2023-03-12T05:19:55;21.25;;;4.85;;
62353;SDS011;48391;49.184;2.418;2023-03-12T05:22:21;15.73;;;3.88;;
62353;SDS011;48391;49.184;2.418;2023-03-12T05:24:47;22.80;;;4.90;;
62353;SDS011;48391;49.184;2.418;2023-03-12T05:27:13;25.48;;;6.47;;
62353;SDS011;48391;49.184;2.418;2023-03-12T05:29:39;15.10;;;4.65;;
62353;SDS011;48391;49.184;2.418;2023-03-12T05:32:05;20.00;;;4.20;;
62353;SDS011;48391;49.184;2.418;2023-03-12T05:34:31;18.55;;;4.03;;
62353;SDS011;48391;49.184;2.418;2023-03-12T05:36:58;14.65;;;3.88;;
62353;SDS011;48391;49.184;2.418;2023-03-12T05:39:24;12.48;;;2.85;;
62353;SDS011;48391;49.184;2.418;2023-03-12T05:41:51;15.40;;;3.70;;
62353;SDS011;48391;49.184;2.418;2023-03-12T05:44:20;12.32;;;3.67;;
62353;SDS011;48391;49.184;2.418;2023-03-12T05:46:46;25.67;;;5.30;;
62353;SDS011;48391;49.184;2.418;2023-03-12T05:49:12;15.65;;;3.72;;
62353;SDS011;48391;49.184;2.418;2023-03-12T05:51:38;15.50;;;3.95;;
62353;SDS011;48391;49.184;2.418;2023-03-12T05:54:06;24.52;;;4.63;;
62353;SDS011;48391;49.184;2.418;2023-03-12T05:56:32;15.90;;;3.70;;
62353;SDS011;48391;49.184;2.418;2023-03-12T05:59:00;15.50;;;4.57;;
62353;SDS011;48391;49.184;2.418;2023-03-12T06:01:26;13.65;;;4.30;;
62353;SDS011;48391;49.184;2.418;2023-03-12T06:03:53;20.92;;;4.88;;
62353;SDS011;48391;49.184;2.418;2023-03-12T06:06:19;25.20;;;5.32;;
62353;SDS011;48391;49.184;2.418;2023-03-12T06:08:45;13.27;;;3.38;;
62353;SDS011;48391;49.184;2.418;2023-03-12T06:11:11;24.42;;;5.10;;
62353;SDS011;48391;49.184;2.418;2023-03-12T06:13:38;17.70;;;5.50;;
62353;SDS011;48391;49.184;2.418;2023-03-12T06:16:12;13.18;;;3.78;;
62353;SDS011;48391;49.184;2.418;2023-03-12T06:18:40;15.65;;;2.85;;
62353;SDS011;48391;49.184;2.418;2023-03-12T06:21:16;18.08;;;4.32;;
62353;SDS011;48391;49.184;2.418;2023-03-12T06:23:43;18.35;;;4.15;;
62353;SDS011;48391;49.184;2.418;2023-03-12T06:26:10;24.70;;;5.43;;
62353;SDS011;48391;49.184;2.418;2023-03-12T06:28:36;28.00;;;6.65;;
62353;SDS011;48391;49.184;2.418;2023-03-12T06:31:03;24.83;;;4.75;;
62353;SDS011;48391;49.184;2.418;2023-03-12T06:33:30;23.38;;;6.13;;
62353;SDS011;48391;49.184;2.418;2023-03-12T06:35:57;18.20;;;4.20;;
62353;SDS011;48391;49.184;2.418;2023-03-12T06:38:23;14.80;;;4.20;;
62353;SDS011;48391;49.184;2.418;2023-03-12T06:40:53;12.05;;;3.35;;
62353;SDS011;48391;49.184;2.418;2023-03-12T06:43:19;12.45;;;4.88;;
62353;SDS011;48391;49.184;2.418;2023-03-12T06:45:45;13.82;;;3.35;;
62353;SDS011;48391;49.184;2.418;2023-03-12T06:48:12;14.18;;;4.10;;
62353;SDS011;48391;49.184;2.418;2023-03-12T06:50:38;14.45;;;3.90;;
62353;SDS011;48391;49.184;2.418;2023-03-12T06:53:04;19.08;;;5.45;;
62353;SDS011;48391;49.184;2.418;2023-03-12T06:55:30;12.90;;;3.75;;
62353;SDS011;48391;49.184;2.418;2023-03-12T06:57:56;14.18;;;3.97;;
62353;SDS011;48391;49.184;2.418;2023-03-12T07:00:22;18.17;;;5.07;;
62353;SDS011;48391;49.184;2.418;2023-03-12T07:02:48;23.90;;;6.75;;
62353;SDS011;48391;49.184;2.418;2023-03-12T07:05:14;15.13;;;5.07;;
62353;SDS011;48391;49.184;2.418;2023-03-12T07:07:40;17.17;;;3.97;;
62353;SDS011;48391;49.184;2.418;2023-03-12T07:10:06;17.98;;;4.03;;
62353;SDS011;48391;49.184;2.418;2023-03-12T07:12:32;19.00;;;3.80;;
62353;SDS011;48391;49.184;2.418;2023-03-12T07:14:58;15.88;;;4.15;;
62353;SDS011;48391;49.184;2.418;2023-03-12T07:17:25;28.98;;;6.10;;
62353;SDS011;48391;49.184;2.418;2023-03-12T07:19:51;11.30;;;4.15;;
62353;SDS011;48391;49.184;2.418;2023-03-12T07:22:17;17.15;;;4.90;;
62353;SDS011;48391;49.184;2.418;2023-03-12T07:24:43;13.15;;;4.13;;
62353;SDS011;48391;49.184;2.418;2023-03-12T07:27:09;13.75;;;3.10;;
62353;SDS011;48391;49.184;2.418;2023-03-12T07:29:35;18.17;;;4.22;;
62353;SDS011;48391;49.184;2.418;2023-03-12T07:32:01;12.07;;;3.35;;
62353;SDS011;48391;49.184;2.418;2023-03-12T07:34:28;17.52;;;3.53;;
62353;SDS011;48391;49.184;2.418;2023-03-12T07:36:54;15.65;;;3.67;;
62353;SDS011;48391;49.184;2.418;2023-03-12T07:39:20;8.80;;;2.70;;
62353;SDS011;48391;49.184;2.418;2023-03-12T07:41:46;10.30;;;4.55;;
62353;SDS011;48391;49.184;2.418;2023-03-12T07:44:12;17.15;;;5.13;;
62353;SDS011;48391;49.184;2.418;2023-03-12T07:46:39;11.70;;;3.88;;
62353;SDS011;48391;49.184;2.418;2023-03-12T07:49:05;20.23;;;5.40;;
62353;SDS011;48391;49.184;2.418;2023-03-12T07:51:31;14.60;;;5.82;;
62353;SDS011;48391;49.184;2.418;2023-03-12T07:53:57;18.55;;;5.47;;
62353;SDS011;48391;49.184;2.418;2023-03-12T07:56:23;12.68;;;3.97;;
62353;SDS011;48391;49.184;2.418;2023-03-12T07:58:49;16.38;;;4.20;;
62353;SDS011;48391;49.184;2.418;2023-03-12T08:01:15;17.85;;;4.85;;
62353;SDS011;48391;49.184;2.418;2023-03-12T08:03:41;25.92;;;4.50;;
62353;SDS011;48391;49.184;2.418;2023-03-12T08:06:07;14.40;;;3.78;;
62353;SDS011;48391;49.184;2.418;2023-03-12T08:08:33;17.83;;;5.32;;
62353;SDS011;48391;49.184;2.418;2023-03-12T08:11:02;23.17;;;5.32;;
62353;SDS011;48391;49.184;2.418;2023-03-12T08:13:29;17.52;;;4.68;;
62353;SDS011;48391;49.184;2.418;2023-03-12T08:15:55;23.20;;;6.38;;
62353;SDS011;48391;49.184;2.418;2023-03-12T08:18:21;9.23;;;3.42;;
62353;SDS011;48391;49.184;2.418;2023-03-12T08:20:49;15.98;;;3.15;;
62353;SDS011;48391;49.184;2.418;2023-03-12T08:23:16;24.80;;;6.05;;
62353;SDS011;48391;49.184;2.418;2023-03-12T08:25:43;13.82;;;4.35;;
62353;SDS011;48391;49.184;2.418;2023-03-12T08:28:10;13.93;;;4.88;;
62353;SDS011;48391;49.184;2.418;2023-03-12T08:30:36;10.95;;;3.92;;
62353;SDS011;48391;49.184;2.418;2023-03-12T08:33:02;15.38;;;4.25;;
62353;SDS011;48391;49.184;2.418;2023-03-12T08:35:28;19.20;;;5.32;;
62353;SDS011;48391;49.184;2.418;2023-03-12T08:37:54;15.82;;;4.50;;
62353;SDS011;48391;49.184;2.418;2023-03-12T08:40:21;17.15;;;5.53;;
62353;SDS011;48391;49.184;2.418;2023-03-12T08:42:47;18.38;;;4.30;;
62353;SDS011;48391;49.184;2.418;2023-03-12T08:45:13;30.63;;;8.43;;
62353;SDS011;48391;49.184;2.418;2023-03-12T08:47:40;19.13;;;6.50;;
62353;SDS011;48391;49.184;2.418;2023-03-12T08:50:08;27.42;;;8.18;;
62353;SDS011;48391;49.184;2.418;2023-03-12T08:52:34;23.83;;;5.35;;
62353;SDS011;48391;49.184;2.418;2023-03-12T08:55:00;18.13;;;4.63;;
62353;SDS011;48391;49.184;2.418;2023-03-12T08:57:26;19.50;;;4.95;;
62353;SDS011;48391;49.184;2.418;2023-03-12T08:59:53;17.55;;;5.53;;
62353;SDS011;48391;49.184;2.418;2023-03-12T09:02:19;15.45;;;4.43;;
62353;SDS011;48391;49.184;2.418;2023-03-12T09:04:48;16.88;;;4.70;;
62353;SDS011;48391;49.184;2.418;2023-03-12T09:07:15;18.95;;;5.78;;
62353;SDS011;48391;49.184;2.418;2023-03-12T09:09:46;20.27;;;4.55;;
62353;SDS011;48391;49.184;2.418;2023-03-12T09:12:12;13.43;;;4.00;;
62353;SDS011;48391;49.184;2.418;2023-03-12T09:14:38;15.55;;;4.38;;
62353;SDS011;48391;49.184;2.418;2023-03-12T09:17:04;17.50;;;5.63;;
62353;SDS011;48391;49.184;2.418;2023-03-12T09:19:30;19.15;;;4.60;;
62353;SDS011;48391;49.184;2.418;2023-03-12T09:21:56;15.40;;;3.85;;
62353;SDS011;48391;49.184;2.418;2023-03-12T09:24:23;14.73;;;4.72;;
62353;SDS011;48391;49.184;2.418;2023-03-12T09:26:49;15.35;;;4.22;;
62353;SDS011;48391;49.184;2.418;2023-03-12T09:29:15;11.10;;;3.65;;
62353;SDS011;48391;49.184;2.418;2023-03-12T09:31:41;17.13;;;4.82;;
62353;SDS011;48391;49.184;2.418;2023-03-12T09:34:07;13.48;;;3.78;;
62353;SDS011;48391;49.184;2.418;2023-03-12T09:36:33;16.00;;;4.28;;
62353;SDS011;48391;49.184;2.418;2023-03-12T09:39:00;11.70;;;5.18;;
62353;SDS011;48391;49.184;2.418;2023-03-12T09:41:28;16.75;;;4.53;;
62353;SDS011;48391;49.184;2.418;2023-03-12T09:43:58;14.00;;;4.63;;
62353;SDS011;48391;49.184;2.418;2023-03-12T09:49:33;27.70;;;5.85;;
62353;SDS011;48391;49.184;2.418;2023-03-12T09:52:02;14.35;;;4.57;;
62353;SDS011;48391;49.184;2.418;2023-03-12T09:54:36;15.83;;;4.27;;
62353;SDS011;48391;49.184;2.418;2023-03-12T09:57:03;12.02;;;3.70;;
62353;SDS011;48391;49.184;2.418;2023-03-12T09:59:33;14.20;;;3.80;;
62353;SDS011;48391;49.184;2.418;2023-03-12T10:02:01;15.32;;;3.65;;
62353;SDS011;48391;49.184;2.418;2023-03-12T10:07:17;12.57;;;3.28;;
62353;SDS011;48391;49.184;2.418;2023-03-12T10:27:52;18.63;;;5.63;;
62353;SDS011;48391;49.184;2.418;2023-03-12T10:30:19;15.05;;;4.72;;
62353;SDS011;48391;49.184;2.418;2023-03-12T10:32:50;18.65;;;5.00;;
62353;SDS011;48391;49.184;2.418;2023-03-12T10:35:19;13.65;;;4.28;;
62353;SDS011;48391;49.184;2.418;2023-03-12T10:37:49;14.85;;;4.70;;
62353;SDS011;48391;49.184;2.418;2023-03-12T10:40:18;13.35;;;2.92;;
62353;SDS011;48391;49.184;2.418;2023-03-12T10:42:44;14.82;;;5.25;;
62353;SDS011;48391;49.184;2.418;2023-03-12T10:47:40;12.32;;;4.68;;
62353;SDS011;48391;49.184;2.418;2023-03-12T10:52:46;15.70;;;3.92;;
62353;SDS011;48391;49.184;2.418;2023-03-12T10:57:45;8.40;;;3.53;;
62353;SDS011;48391;49.184;2.418;2023-03-12T11:00:44;8.15;;;3.55;;
62353;SDS011;48391;49.184;2.418;2023-03-12T11:03:05;10.88;;;4.10;;
62353;SDS011;48391;49.184;2.418;2023-03-12T11:05:34;15.60;;;3.83;;
62353;SDS011;48391;49.184;2.418;2023-03-12T11:08:02;11.48;;;2.97;;
62353;SDS011;48391;49.184;2.418;2023-03-12T11:13:02;9.77;;;3.78;;
62353;SDS011;48391;49.184;2.418;2023-03-12T11:15:30;17.17;;;3.78;;
62353;SDS011;48391;49.184;2.418;2023-03-12T11:20:43;8.52;;;3.40;;
62353;SDS011;48391;49.184;2.418;2023-03-12T11:23:16;11.35;;;3.22;;
62353;SDS011;48391;49.184;2.418;2023-03-12T11:25:42;12.75;;;3.45;;
62353;SDS011;48391;49.184;2.418;2023-03-12T11:28:13;8.32;;;2.88;;
62353;SDS011;48391;49.184;2.418;2023-03-12T11:30:42;9.90;;;3.13;;
62353;SDS011;48391;49.184;2.418;2023-03-12T11:33:09;9.00;;;2.55;;
62353;SDS011;48391;49.184;2.418;2023-03-12T11:38:07;12.15;;;4.03;;
62353;SDS011;48391;49.184;2.418;2023-03-12T11:40:58;9.82;;;3.08;;
62353;SDS011;48391;49.184;2.418;2023-03-12T12:09:04;8.20;;;3.30;;
62353;SDS011;48391;49.184;2.418;2023-03-12T12:11:36;13.43;;;3.63;;
62353;SDS011;48391;49.184;2.418;2023-03-12T12:26:43;13.23;;;4.80;;
62353;SDS011;48391;49.184;2.418;2023-03-12T12:36:37;10.93;;;3.30;;
62353;SDS011;48391;49.184;2.418;2023-03-12T12:39:07;9.23;;;2.65;;
62353;SDS011;48391;49.184;2.418;2023-03-12T12:41:35;15.43;;;4.38;;
62353;SDS011;48391;49.184;2.418;2023-03-12T12:44:13;18.67;;;4.40;;
62353;SDS011;48391;49.184;2.418;2023-03-12T12:46:41;11.10;;;3.33;;
62353;SDS011;48391;49.184;2.418;2023-03-12T12:49:23;8.43;;;1.88;;
62353;SDS011;48391;49.184;2.418;2023-03-12T12:51:52;12.30;;;2.95;;
62353;SDS011;48391;49.184;2.418;2023-03-12T12:56:49;15.10;;;4.05;;
62353;SDS011;48391;49.184;2.418;2023-03-12T13:02:02;12.90;;;4.30;;
62353;SDS011;48391;49.184;2.418;2023-03-12T13:04:31;9.35;;;4.28;;
62353;SDS011;48391;49.184;2.418;2023-03-12T13:07:00;10.77;;;3.85;;
62353;SDS011;48391;49.184;2.418;2023-03-12T13:09:39;8.60;;;3.17;;
62353;SDS011;48391;49.184;2.418;2023-03-12T13:14:39;8.60;;;2.75;;
62353;SDS011;48391;49.184;2.418;2023-03-12T13:17:20;10.18;;;2.60;;
62353;SDS011;48391;49.184;2.418;2023-03-12T13:19:47;13.27;;;3.65;;
62353;SDS011;48391;49.184;2.418;2023-03-12T13:22:26;9.13;;;3.08;;
62353;SDS011;48391;49.184;2.418;2023-03-12T13:27:40;9.73;;;3.05;;
62353;SDS011;48391;49.184;2.418;2023-03-12T13:30:26;8.52;;;2.92;;
62353;SDS011;48391;49.184;2.418;2023-03-12T13:43:02;10.25;;;3.72;;
62353;SDS011;48391;49.184;2.418;2023-03-12T13:48:13;12.30;;;3.90;;
62353;SDS011;48391;49.184;2.418;2023-03-12T13:50:41;10.18;;;2.88;;
62353;SDS011;48391;49.184;2.418;2023-03-12T13:53:18;8.02;;;2.78;;
62353;SDS011;48391;49.184;2.418;2023-03-12T13:55:48;8.48;;;2.10;;
62353;SDS011;48391;49.184;2.418;2023-03-12T13:58:16;6.10;;;2.40;;
62353;SDS011;48391;49.184;2.418;2023-03-12T14:03:21;13.15;;;3.67;;
62353;SDS011;48391;49.184;2.418;2023-03-12T14:05:51;8.98;;;2.80;;
62353;SDS011;48391;49.184;2.418;2023-03-12T14:18:14;7.20;;;2.83;;
62353;SDS011;48391;49.184;2.418;2023-03-12T14:20:46;9.82;;;3.00;;
62353;SDS011;48391;49.184;2.418;2023-03-12T14:23:14;10.68;;;2.58;;
62353;SDS011;48391;49.184;2.418;2023-03-12T14:25:42;8.73;;;2.67;;
62353;SDS011;48391;49.184;2.418;2023-03-12T14:28:19;6.07;;;2.13;;
62353;SDS011;48391;49.184;2.418;2023-03-12T14:33:24;6.82;;;2.47;;
62353;SDS011;48391;49.184;2.418;2023-03-12T14:36:02;4.15;;;1.70;;
62353;SDS011;48391;49.184;2.418;2023-03-12T14:38:30;4.00;;;1.60;;
62353;SDS011;48391;49.184;2.418;2023-03-12T14:41:05;9.02;;;2.38;;
62353;SDS011;48391;49.184;2.418;2023-03-12T14:43:37;4.83;;;2.30;;
62353;SDS011;48391;49.184;2.418;2023-03-12T14:46:05;8.55;;;2.40;;
62353;SDS011;48391;49.184;2.418;2023-03-12T14:48:38;10.98;;;3.10;;
62353;SDS011;48391;49.184;2.418;2023-03-12T14:51:05;8.88;;;2.97;;
62353;SDS011;48391;49.184;2.418;2023-03-12T14:53:35;12.93;;;4.18;;
62353;SDS011;48391;49.184;2.418;2023-03-12T14:56:07;16.60;;;4.38;;
62353;SDS011;48391;49.184;2.418;2023-03-12T14:58:34;9.60;;;3.63;;
62353;SDS011;48391;49.184;2.418;2023-03-12T15:01:04;8.07;;;3.20;;
62353;SDS011;48391;49.184;2.418;2023-03-12T15:03:32;9.07;;;2.45;;
62353;SDS011;48391;49.184;2.418;2023-03-12T15:06:01;11.43;;;3.03;;
62353;SDS011;48391;49.184;2.418;2023-03-12T15:08:27;10.35;;;3.65;;
62353;SDS011;48391;49.184;2.418;2023-03-12T15:10:57;12.18;;;2.67;;
62353;SDS011;48391;49.184;2.418;2023-03-12T15:13:23;7.47;;;2.70;;
62353;SDS011;48391;49.184;2.418;2023-03-12T15:15:53;6.68;;;2.28;;
62353;SDS011;48391;49.184;2.418;2023-03-12T15:18:27;10.73;;;2.72;;
62353;SDS011;48391;49.184;2.418;2023-03-12T15:20:54;5.47;;;2.83;;
62353;SDS011;48391;49.184;2.418;2023-03-12T15:23:22;7.18;;;2.63;;
62353;SDS011;48391;49.184;2.418;2023-03-12T15:26:06;7.03;;;2.60;;
62353;SDS011;48391;49.184;2.418;2023-03-12T15:28:33;5.07;;;2.35;;
62353;SDS011;48391;49.184;2.418;2023-03-12T15:31:13;8.98;;;2.72;;
62353;SDS011;48391;49.184;2.418;2023-03-12T15:33:39;5.20;;;1.80;;
62353;SDS011;48391;49.184;2.418;2023-03-12T15:38:46;6.68;;;2.47;;
62353;SDS011;48391;49.184;2.418;2023-03-12T15:41:19;7.63;;;2.45;;
62353;SDS011;48391;49.184;2.418;2023-03-12T15:43:50;15.10;;;2.67;;
62353;SDS011;48391;49.184;2.418;2023-03-12T15:46:16;9.13;;;2.58;;
62353;SDS011;48391;49.184;2.418;2023-03-12T15:48:46;4.60;;;1.95;;
62353;SDS011;48391;49.184;2.418;2023-03-12T15:51:24;5.32;;;1.98;;
62353;SDS011;48391;49.184;2.418;2023-03-12T15:54:01;6.35;;;2.05;;
62353;SDS011;48391;49.184;2.418;2023-03-12T15:56:28;4.68;;;2.05;;
62353;SDS011;48391;49.184;2.418;2023-03-12T15:58:59;6.95;;;2.50;;
62353;SDS011;48391;49.184;2.418;2023-03-12T16:01:25;9.35;;;2.20;;
62353;SDS011;48391;49.184;2.418;2023-03-12T16:03:52;4.22;;;1.67;;
62353;SDS011;48391;49.184;2.418;2023-03-12T16:06:22;4.47;;;2.17;;
62353;SDS011;48391;49.184;2.418;2023-03-12T16:08:59;6.68;;;2.25;;
62353;SDS011;48391;49.184;2.418;2023-03-12T16:11:30;4.60;;;1.58;;
62353;SDS011;48391;49.184;2.418;2023-03-12T16:14:10;8.77;;;3.47;;
62353;SDS011;48391;49.184;2.418;2023-03-12T16:16:37;7.40;;;2.25;;
62353;SDS011;48391;49.184;2.418;2023-03-12T16:19:10;10.35;;;3.30;;
62353;SDS011;48391;49.184;2.418;2023-03-12T16:21:37;4.75;;;2.15;;
62353;SDS011;48391;49.184;2.418;2023-03-12T16:24:03;9.35;;;2.65;;
62353;SDS011;48391;49.184;2.418;2023-03-12T16:26:30;7.57;;;1.52;;
62353;SDS011;48391;49.184;2.418;2023-03-12T16:28:57;4.47;;;1.55;;
62353;SDS011;48391;49.184;2.418;2023-03-12T16:31:23;7.63;;;2.22;;
62353;SDS011;48391;49.184;2.418;2023-03-12T16:33:49;15.60;;;3.08;;
62353;SDS011;48391;49.184;2.418;2023-03-12T16:36:16;8.30;;;2.67;;
62353;SDS011;48391;49.184;2.418;2023-03-12T16:38:43;3.78;;;1.70;;
62353;SDS011;48391;49.184;2.418;2023-03-12T16:41:13;7.57;;;1.70;;
62353;SDS011;48391;49.184;2.418;2023-03-12T16:43:40;6.57;;;2.75;;
62353;SDS011;48391;49.184;2.418;2023-03-12T16:46:07;9.82;;;3.55;;
62353;SDS011;48391;49.184;2.418;2023-03-12T16:48:33;5.43;;;2.05;;
62353;SDS011;48391;49.184;2.418;2023-03-12T16:51:00;9.55;;;3.15;;
62353;SDS011;48391;49.184;2.418;2023-03-12T16:53:26;10.82;;;1.80;;
62353;SDS011;48391;49.184;2.418;2023-03-12T16:55:53;6.38;;;2.20;;
62353;SDS011;48391;49.184;2.418;2023-03-12T16:58:20;7.20;;;2.05;;
62353;SDS011;48391;49.184;2.418;2023-03-12T17:00:47;4.75;;;1.70;;